Time;durP1;ratioP1;P1;durP2;ratioP2;P2;SDS_P1;SDS_P2;PMS_P1;PMS_P2;Temp;Humidity;BMP_temperature;BMP_pressure;BME280_temperature;BME280_humidity;BME280_pressure;Samples;Min_cycle;Max_cycle;Signal;HPM_P1;HPM_P2
2022/12/10 00:01:43;;;;;;;30.55;16.70;;;-0.10;99.90;;;;;;4948207;28;20047;-85
2022/12/10 00:04:12;;;;;;;30.95;17.88;;;-0.10;99.90;;;;;;4932512;29;20051;-85
2022/12/10 00:06:44;;;;;;;38.30;15.68;;;-0.10;99.90;;;;;;4917523;29;20055;-85
2022/12/10 00:09:16;;;;;;;38.65;14.68;;;-0.10;99.90;;;;;;4932537;28;20047;-85
2022/12/10 00:11:44;;;;;;;39.70;17.70;;;-0.10;99.90;;;;;;4948776;28;20054;-85
2022/12/10 00:14:15;;;;;;;31.50;16.73;;;-0.10;99.90;;;;;;4949376;29;20051;-85
2022/12/10 00:16:43;;;;;;;24.17;15.32;;;-0.10;99.90;;;;;;4932740;28;20760;-85
2022/12/10 00:19:11;;;;;;;33.10;18.65;;;-0.10;99.90;;;;;;4962899;28;20054;-85
2022/12/10 00:21:40;;;;;;;28.20;15.10;;;-0.10;99.90;;;;;;4949590;28;20264;-84
2022/12/10 00:24:09;;;;;;;26.88;18.40;;;-0.10;99.90;;;;;;4949504;28;20046;-85
2022/12/10 00:26:38;;;;;;;27.95;15.63;;;-0.10;99.90;;;;;;4949503;29;20067;-85
2022/12/10 00:29:09;;;;;;;39.72;19.92;;;-0.10;99.90;;;;;;4931048;29;20043;-86
2022/12/10 00:31:37;;;;;;;32.37;14.93;;;0.00;99.90;;;;;;4916081;28;20051;-85
2022/12/10 00:34:08;;;;;;;31.88;17.10;;;0.00;99.90;;;;;;4933140;29;20051;-85
2022/12/10 00:36:44;;;;;;;32.80;16.83;;;0.00;99.90;;;;;;4916802;29;20054;-85
2022/12/10 00:39:15;;;;;;;25.50;15.10;;;0.00;99.90;;;;;;4961898;28;20421;-85
2022/12/10 00:41:44;;;;;;;36.67;18.67;;;-0.10;99.90;;;;;;4957571;28;20059;-84
2022/12/10 00:44:15;;;;;;;40.25;17.70;;;-0.10;99.90;;;;;;4931592;29;20040;-85
2022/12/10 00:46:43;;;;;;;36.03;17.38;;;-0.10;99.90;;;;;;4933182;29;20482;-86
2022/12/10 00:49:11;;;;;;;24.23;15.73;;;0.00;99.90;;;;;;4948459;28;20417;-85
2022/12/10 00:51:39;;;;;;;27.40;16.30;;;0.00;99.90;;;;;;4950593;28;20253;-86
2022/12/10 00:54:07;;;;;;;31.40;15.30;;;0.00;99.90;;;;;;4951173;29;20443;-85
2022/12/10 00:56:35;;;;;;;32.42;17.35;;;0.00;99.90;;;;;;4952001;28;20043;-85
2022/12/10 00:59:02;;;;;;;29.02;16.85;;;0.00;99.90;;;;;;4951048;29;20055;-85
2022/12/10 01:01:36;;;;;;;34.33;18.10;;;0.00;99.90;;;;;;4951525;28;20407;-85
2022/12/10 01:04:13;;;;;;;36.60;17.40;;;0.00;99.90;;;;;;4951668;28;20062;-85
2022/12/10 01:06:45;;;;;;;32.30;16.20;;;0.00;99.90;;;;;;4936160;29;20062;-85
2022/12/10 01:09:19;;;;;;;36.05;19.00;;;0.00;99.90;;;;;;4951385;28;20048;-85
2022/12/10 01:11:49;;;;;;;28.42;16.30;;;0.00;99.90;;;;;;4967235;28;20403;-85
2022/12/10 01:14:23;;;;;;;29.52;16.13;;;0.00;99.90;;;;;;4934714;29;20047;-85
2022/12/10 01:16:54;;;;;;;33.72;18.23;;;0.00;99.90;;;;;;4951481;28;20063;-85
2022/12/10 01:19:22;;;;;;;30.17;16.17;;;0.00;99.90;;;;;;4967328;28;20402;-85
2022/12/10 01:21:55;;;;;;;25.98;16.98;;;0.00;99.90;;;;;;4950435;29;20272;-85
2022/12/10 01:24:25;;;;;;;28.38;17.25;;;0.00;99.90;;;;;;4966404;28;20047;-86
2022/12/10 01:26:55;;;;;;;24.52;14.13;;;0.00;99.90;;;;;;4951896;29;20051;-85
2022/12/10 01:29:22;;;;;;;31.52;16.10;;;0.00;99.90;;;;;;4933945;28;20433;-85
2022/12/10 01:31:52;;;;;;;30.15;15.07;;;0.00;99.90;;;;;;4951186;28;20411;-85
2022/12/10 01:34:21;;;;;;;33.33;16.38;;;0.10;99.90;;;;;;4950391;29;20055;-85
2022/12/10 01:36:51;;;;;;;36.97;15.75;;;0.00;99.90;;;;;;4966589;28;20070;-85
2022/12/10 01:39:20;;;;;;;36.35;17.23;;;0.00;99.90;;;;;;4966304;28;20046;-86
2022/12/10 01:41:54;;;;;;;25.50;15.38;;;0.00;99.90;;;;;;4969779;28;20077;-85
2022/12/10 01:44:22;;;;;;;36.30;17.48;;;0.00;99.90;;;;;;4933376;28;20776;-85
2022/12/10 01:46:56;;;;;;;29.08;15.80;;;0.00;99.90;;;;;;4971504;28;20046;-85
2022/12/10 01:49:33;;;;;;;30.55;16.33;;;0.00;99.90;;;;;;4953901;28;20066;-85
2022/12/10 01:52:01;;;;;;;28.13;14.30;;;0.00;99.90;;;;;;4953883;28;20043;-85
2022/12/10 01:54:32;;;;;;;32.88;18.48;;;0.00;99.90;;;;;;4968617;28;20445;-85
2022/12/10 01:57:17;;;;;;;31.05;15.05;;;0.00;99.90;;;;;;4969801;28;20097;-85
2022/12/10 01:59:49;;;;;;;18.25;11.98;;;0.00;99.90;;;;;;4968042;28;20043;-85
2022/12/10 02:02:48;;;;;;;27.10;16.08;;;0.00;99.90;;;;;;4955678;28;20050;-89
2022/12/10 02:05:37;;;;;;;27.63;15.10;;;0.00;99.90;;;;;;4936089;28;20058;-90
2022/12/10 02:08:27;;;;;;;24.63;15.75;;;0.00;99.90;;;;;;4971704;28;20050;-90
2022/12/10 02:11:11;;;;;;;35.40;15.90;;;0.00;99.90;;;;;;4938830;28;20053;-90
2022/12/10 02:13:58;;;;;;;28.80;16.60;;;0.00;99.90;;;;;;4968882;28;20074;-90
2022/12/10 02:16:31;;;;;;;26.60;15.48;;;0.00;99.90;;;;;;4954495;28;20054;-90
2022/12/10 02:19:15;;;;;;;32.28;16.50;;;0.00;99.90;;;;;;4954691;28;20264;-89
2022/12/10 02:21:47;;;;;;;30.27;16.73;;;-0.10;99.90;;;;;;4931632;28;20043;-89
2022/12/10 02:24:19;;;;;;;29.40;15.52;;;-0.10;99.90;;;;;;4947541;28;20058;-90
2022/12/10 02:27:18;;;;;;;24.88;14.50;;;-0.10;99.90;;;;;;4932556;29;20060;-89
2022/12/10 02:29:48;;;;;;;30.42;17.08;;;0.00;99.90;;;;;;4930345;28;20058;-90
2022/12/10 02:32:30;;;;;;;32.53;17.42;;;-0.10;99.90;;;;;;4932417;28;20040;-91
2022/12/10 02:35:04;;;;;;;28.05;13.20;;;-0.10;99.90;;;;;;4901052;29;20059;-91
2022/12/10 02:37:39;;;;;;;27.92;13.05;;;0.00;99.90;;;;;;4934239;28;20047;-89
2022/12/10 02:40:15;;;;;;;35.47;17.33;;;0.00;99.90;;;;;;4968792;28;20062;-91
2022/12/10 02:42:49;;;;;;;24.88;14.90;;;0.00;99.90;;;;;;4954303;28;20057;-90
2022/12/10 02:45:23;;;;;;;31.45;15.93;;;0.00;99.90;;;;;;4968821;28;20422;-90
2022/12/10 02:47:56;;;;;;;32.45;12.40;;;0.00;99.90;;;;;;4947853;28;20047;-90
2022/12/10 02:50:25;;;;;;;27.88;15.65;;;0.00;99.90;;;;;;4934957;29;20058;-89
2022/12/10 02:52:56;;;;;;;20.23;15.50;;;0.10;99.90;;;;;;4914186;29;20047;-90
2022/12/10 02:55:24;;;;;;;19.73;13.60;;;0.10;99.90;;;;;;4946062;28;20051;-90
2022/12/10 02:58:26;;;;;;;31.65;15.80;;;0.10;99.90;;;;;;4947077;29;20057;-90
2022/12/10 03:01:20;;;;;;;36.85;15.50;;;0.00;99.90;;;;;;4913310;29;20635;-90
2022/12/10 03:04:05;;;;;;;30.83;17.48;;;0.00;99.90;;;;;;4931270;29;20185;-90
2022/12/10 03:06:39;;;;;;;28.67;15.43;;;0.00;99.90;;;;;;4946862;29;20052;-90
2022/12/10 03:09:31;;;;;;;34.67;15.82;;;0.10;99.90;;;;;;4946236;28;20073;-89
2022/12/10 03:12:06;;;;;;;28.75;16.65;;;0.00;99.90;;;;;;4970429;28;20418;-89
2022/12/10 03:14:34;;;;;;;31.42;14.70;;;0.00;99.90;;;;;;4968200;28;20063;-90
2022/12/10 03:17:04;;;;;;;23.73;14.35;;;0.00;99.90;;;;;;4968978;28;20050;-90
2022/12/10 03:19:42;;;;;;;24.65;14.90;;;0.00;99.90;;;;;;4969101;28;20046;-89
2022/12/10 03:22:12;;;;;;;36.15;17.38;;;0.00;99.90;;;;;;4968413;28;20057;-89
2022/12/10 03:24:42;;;;;;;32.30;16.02;;;0.00;99.90;;;;;;4952883;28;20046;-91
2022/12/10 03:27:12;;;;;;;25.65;13.65;;;0.10;99.90;;;;;;4969483;28;20059;-89
2022/12/10 03:29:48;;;;;;;25.85;13.45;;;0.10;99.90;;;;;;4966829;28;20123;-89
2022/12/10 03:32:17;;;;;;;28.23;15.25;;;0.10;99.90;;;;;;4968573;28;20039;-89
2022/12/10 03:34:45;;;;;;;26.75;13.77;;;0.10;99.90;;;;;;4953464;28;20435;-89
2022/12/10 03:37:13;;;;;;;22.55;14.38;;;0.10;99.90;;;;;;4968622;28;20057;-90
2022/12/10 03:39:42;;;;;;;20.73;12.07;;;0.10;99.90;;;;;;4967594;28;20054;-90
2022/12/10 03:42:13;;;;;;;25.52;16.02;;;0.00;99.90;;;;;;4968661;28;20073;-89
2022/12/10 03:44:40;;;;;;;26.10;15.52;;;0.00;99.90;;;;;;4967398;28;20047;-89
2022/12/10 03:47:12;;;;;;;22.55;14.93;;;0.00;99.90;;;;;;4937194;28;20050;-89
2022/12/10 03:49:40;;;;;;;26.67;14.80;;;0.00;99.90;;;;;;4967532;28;20058;-89
2022/12/10 03:52:08;;;;;;;27.35;14.98;;;0.00;99.90;;;;;;4962807;28;20051;-88
2022/12/10 03:54:36;;;;;;;24.17;13.90;;;0.10;99.90;;;;;;4948035;28;20055;-89
2022/12/10 03:57:04;;;;;;;23.55;13.88;;;0.00;99.90;;;;;;4931122;29;20047;-89
2022/12/10 03:59:32;;;;;;;21.58;14.77;;;0.00;99.90;;;;;;4944646;28;20052;-90
2022/12/10 04:02:00;;;;;;;33.88;15.40;;;0.00;99.90;;;;;;4946324;29;20055;-89
2022/12/10 04:04:28;;;;;;;29.40;17.52;;;0.00;99.90;;;;;;4946079;28;20047;-90
2022/12/10 04:06:55;;;;;;;27.02;15.23;;;0.00;99.90;;;;;;4930938;29;20052;-88
2022/12/10 04:09:23;;;;;;;30.58;16.67;;;0.00;99.90;;;;;;4931106;28;20047;-89
2022/12/10 04:11:56;;;;;;;27.73;17.63;;;0.10;99.90;;;;;;4930948;29;20043;-88
2022/12/10 04:17:12;;;;;;;22.73;12.80;;;0.00;99.90;;;;;;4930010;28;20040;-88
2022/12/10 04:19:40;;;;;;;29.67;13.23;;;0.00;99.90;;;;;;4949481;28;20412;-90
2022/12/10 04:27:55;;;;;;;25.08;14.35;;;-0.10;99.90;;;;;;4942346;28;20055;-89
2022/12/10 04:30:27;;;;;;;24.77;15.48;;;-0.10;99.90;;;;;;4952115;28;20066;-88
2022/12/10 04:32:57;;;;;;;25.45;15.10;;;-0.10;99.90;;;;;;4937056;28;20047;-88
2022/12/10 04:35:24;;;;;;;22.13;13.20;;;-0.10;99.90;;;;;;4951804;28;20059;-89
2022/12/10 04:37:52;;;;;;;27.13;14.85;;;-0.10;99.90;;;;;;4958084;28;20042;-89
2022/12/10 04:40:19;;;;;;;27.77;14.98;;;-0.10;99.90;;;;;;4955054;28;20046;-89
2022/12/10 04:42:47;;;;;;;24.67;16.00;;;-0.10;99.90;;;;;;4974643;28;20073;-89
2022/12/10 04:45:14;;;;;;;26.90;14.15;;;0.00;99.90;;;;;;4973471;28;20046;-88
2022/12/10 04:47:42;;;;;;;28.23;14.15;;;-0.10;99.90;;;;;;4973976;28;20065;-88
2022/12/10 04:50:10;;;;;;;26.23;15.45;;;-0.10;99.90;;;;;;4974490;28;20065;-88
2022/12/10 04:52:40;;;;;;;26.35;14.50;;;-0.20;99.90;;;;;;4969935;28;20068;-88
2022/12/10 04:55:08;;;;;;;32.72;17.80;;;-0.20;99.90;;;;;;4936680;29;20044;-88
2022/12/10 04:57:36;;;;;;;21.98;13.40;;;-0.10;99.90;;;;;;4967637;28;20055;-88
2022/12/10 05:00:04;;;;;;;28.95;12.95;;;0.00;99.90;;;;;;4934620;29;20070;-90
2022/12/10 05:02:32;;;;;;;24.88;13.30;;;0.00;99.90;;;;;;4952145;29;20043;-88
2022/12/10 05:05:00;;;;;;;28.90;17.05;;;0.00;99.90;;;;;;4935812;29;20055;-88
2022/12/10 05:07:28;;;;;;;28.45;13.20;;;-0.10;99.90;;;;;;4936251;28;20062;-88
2022/12/10 05:10:00;;;;;;;28.73;14.38;;;0.00;99.90;;;;;;4951978;29;20059;-89
2022/12/10 05:12:28;;;;;;;25.67;12.35;;;-0.10;99.90;;;;;;4952640;29;20043;-88
2022/12/10 05:14:56;;;;;;;28.35;11.75;;;0.00;99.90;;;;;;4951142;29;20055;-90
2022/12/10 05:17:23;;;;;;;29.15;16.38;;;-0.10;99.90;;;;;;4951420;29;20043;-89
2022/12/10 05:19:51;;;;;;;20.25;12.55;;;-0.10;99.90;;;;;;4934990;28;20047;-89
2022/12/10 05:25:04;;;;;;;23.20;14.93;;;-0.10;99.90;;;;;;4949871;28;20054;-89
2022/12/10 05:27:33;;;;;;;28.75;12.82;;;0.00;99.90;;;;;;4919714;28;20508;-89
2022/12/10 05:30:03;;;;;;;30.92;14.57;;;-0.10;99.90;;;;;;4951805;29;20055;-88
2022/12/10 05:32:30;;;;;;;32.25;16.77;;;0.00;99.90;;;;;;4951504;28;20053;-88
2022/12/10 05:34:58;;;;;;;26.15;14.13;;;0.00;99.90;;;;;;4935086;29;20419;-88
2022/12/10 05:37:25;;;;;;;27.83;13.90;;;-0.10;99.90;;;;;;4935473;28;20043;-87
2022/12/10 05:39:53;;;;;;;28.25;12.48;;;-0.10;99.90;;;;;;4990157;28;20046;-88
2022/12/10 05:42:20;;;;;;;21.48;12.35;;;-0.10;99.90;;;;;;4974218;28;20046;-87
2022/12/10 05:44:50;;;;;;;22.65;15.40;;;-0.10;99.90;;;;;;4957154;28;20049;-88
2022/12/10 05:47:18;;;;;;;26.80;14.23;;;0.00;99.90;;;;;;4973309;28;20057;-88
2022/12/10 05:49:49;;;;;;;26.35;13.48;;;-0.10;99.90;;;;;;4990503;28;20510;-88
2022/12/10 05:52:19;;;;;;;21.05;11.98;;;-0.10;99.90;;;;;;4957757;28;20069;-88
2022/12/10 05:54:47;;;;;;;30.23;14.88;;;-0.10;99.90;;;;;;4935199;29;20066;-89
2022/12/10 05:57:15;;;;;;;22.83;13.10;;;0.00;99.90;;;;;;4919318;29;20063;-88
2022/12/10 05:59:43;;;;;;;23.17;14.75;;;0.00;99.90;;;;;;4949422;28;20055;-88
2022/12/10 06:02:10;;;;;;;17.88;12.20;;;0.00;99.90;;;;;;4935632;29;20055;-88
2022/12/10 06:04:38;;;;;;;30.13;14.70;;;0.00;99.90;;;;;;4918698;29;20062;-88
2022/12/10 06:07:05;;;;;;;32.08;12.40;;;0.00;99.90;;;;;;4935134;29;20055;-88
2022/12/10 06:09:37;;;;;;;21.08;12.70;;;0.00;99.90;;;;;;4950643;28;20051;-87
2022/12/10 06:12:10;;;;;;;28.52;14.02;;;-0.10;99.90;;;;;;4951988;28;20051;-89
2022/12/10 06:14:38;;;;;;;23.15;14.80;;;-0.10;99.90;;;;;;4951153;29;20055;-88
2022/12/10 06:17:06;;;;;;;26.42;14.02;;;-0.10;99.90;;;;;;4951570;28;20043;-88
2022/12/10 06:19:36;;;;;;;21.92;10.98;;;-0.10;99.90;;;;;;4954553;28;20055;-88
2022/12/10 06:22:07;;;;;;;22.55;12.52;;;-0.10;99.90;;;;;;4954248;28;20043;-88
2022/12/10 06:24:34;;;;;;;23.38;12.70;;;-0.10;99.90;;;;;;4953672;28;20371;-88
2022/12/10 06:27:02;;;;;;;22.25;13.32;;;-0.20;99.90;;;;;;4953244;28;20059;-88
2022/12/10 06:29:29;;;;;;;24.80;11.50;;;-0.20;99.90;;;;;;4951680;28;20047;-88
2022/12/10 06:31:57;;;;;;;22.90;14.40;;;-0.20;99.90;;;;;;4969669;28;20047;-89
2022/12/10 06:34:25;;;;;;;30.13;14.95;;;-0.20;99.90;;;;;;4954078;28;20066;-89
2022/12/10 06:36:53;;;;;;;30.92;15.43;;;-0.20;99.90;;;;;;4953026;28;20135;-88
2022/12/10 06:39:21;;;;;;;28.17;15.00;;;-0.30;99.90;;;;;;4969335;28;20061;-89
2022/12/10 06:41:48;;;;;;;22.55;12.65;;;-0.20;99.90;;;;;;4972419;28;20061;-89
2022/12/10 06:44:16;;;;;;;39.45;16.60;;;-0.30;99.90;;;;;;4971572;28;20050;-88
2022/12/10 06:46:46;;;;;;;29.73;16.58;;;-0.30;99.90;;;;;;4973074;28;20053;-89
2022/12/10 06:49:13;;;;;;;25.23;16.75;;;-0.30;99.90;;;;;;4971604;28;20063;-88
2022/12/10 06:51:41;;;;;;;30.55;17.67;;;-0.30;99.90;;;;;;4955999;28;20050;-90
2022/12/10 06:54:08;;;;;;;29.65;16.77;;;-0.30;99.90;;;;;;4975259;28;20058;-89
2022/12/10 06:56:36;;;;;;;24.33;14.43;;;-0.30;99.90;;;;;;4952776;28;20489;-88
2022/12/10 06:59:06;;;;;;;30.13;16.40;;;-0.30;99.90;;;;;;4952208;28;20050;-88
2022/12/10 07:01:33;;;;;;;28.38;15.23;;;-0.30;99.90;;;;;;4970184;28;20055;-88
2022/12/10 07:04:01;;;;;;;29.48;16.80;;;-0.20;99.90;;;;;;4968441;28;20055;-88
2022/12/10 07:06:31;;;;;;;32.30;19.27;;;-0.30;99.90;;;;;;4921832;28;20063;-88
2022/12/10 07:08:59;;;;;;;37.72;18.35;;;-0.20;99.90;;;;;;4968406;28;20058;-88
2022/12/10 07:11:26;;;;;;;32.40;16.75;;;-0.20;99.90;;;;;;4952443;28;20062;-88
2022/12/10 07:13:54;;;;;;;29.65;16.60;;;-0.30;99.90;;;;;;4952324;28;20058;-89
2022/12/10 07:16:29;;;;;;;29.65;15.20;;;-0.30;99.90;;;;;;4968838;28;20066;-88
2022/12/10 07:19:01;;;;;;;27.15;18.08;;;-0.30;99.90;;;;;;4967858;28;20057;-89
2022/12/10 07:21:33;;;;;;;24.38;14.68;;;-0.30;99.90;;;;;;4968685;28;20046;-88
2022/12/10 07:24:13;;;;;;;29.05;16.67;;;-0.30;99.90;;;;;;4969857;28;20050;-87
2022/12/10 07:26:43;;;;;;;25.95;14.43;;;-0.30;99.90;;;;;;4952350;28;20074;-88
2022/12/10 07:29:19;;;;;;;29.83;19.55;;;-0.20;99.90;;;;;;4919416;28;20051;-88
2022/12/10 07:31:48;;;;;;;28.60;16.73;;;-0.10;99.90;;;;;;4962119;28;20041;-88
2022/12/10 07:34:16;;;;;;;33.33;16.48;;;-0.10;99.90;;;;;;4968855;28;20054;-87
2022/12/10 07:36:44;;;;;;;25.55;16.17;;;0.00;99.90;;;;;;4952419;28;20054;-88
2022/12/10 07:39:17;;;;;;;26.52;17.83;;;-0.10;99.90;;;;;;4965576;28;20437;-89
2022/12/10 07:41:52;;;;;;;24.02;15.25;;;0.00;99.90;;;;;;4987412;28;20050;-89
2022/12/10 07:44:22;;;;;;;29.05;17.50;;;0.00;99.90;;;;;;4970287;28;20053;-88
2022/12/10 07:46:51;;;;;;;28.58;14.88;;;0.00;99.90;;;;;;4988754;28;20058;-89
2022/12/10 07:49:19;;;;;;;24.98;16.35;;;0.00;99.90;;;;;;4971495;28;20295;-89
2022/12/10 07:51:49;;;;;;;29.42;19.60;;;0.00;99.90;;;;;;4971559;28;20228;-88
2022/12/10 07:54:19;;;;;;;31.77;16.42;;;0.00;99.90;;;;;;4958625;28;20127;-89
2022/12/10 07:56:47;;;;;;;26.17;17.63;;;0.00;99.90;;;;;;4950610;28;20043;-88
2022/12/10 07:59:15;;;;;;;24.85;15.48;;;0.10;99.90;;;;;;4952878;28;20055;-88
2022/12/10 08:01:43;;;;;;;30.95;15.32;;;0.00;99.90;;;;;;4963703;28;20047;-88
2022/12/10 08:04:10;;;;;;;25.02;17.58;;;0.10;99.90;;;;;;4953122;28;20054;-89
2022/12/10 08:06:38;;;;;;;25.42;15.35;;;0.10;99.90;;;;;;4973591;28;20050;-89
2022/12/10 08:09:06;;;;;;;26.88;13.70;;;0.10;99.90;;;;;;4958242;28;20418;-87
2022/12/10 08:11:34;;;;;;;26.33;16.27;;;0.10;99.90;;;;;;4940221;28;20049;-89
2022/12/10 08:14:04;;;;;;;25.38;14.98;;;0.20;99.90;;;;;;4939000;29;20275;-89
2022/12/10 08:16:32;;;;;;;27.98;15.48;;;0.30;99.90;;;;;;4929178;28;20047;-91
2022/12/10 08:19:00;;;;;;;27.00;16.98;;;0.40;99.90;;;;;;4958960;28;20074;-89
2022/12/10 08:21:34;;;;;;;27.75;15.18;;;0.50;99.90;;;;;;4956583;28;20065;-89
2022/12/10 08:24:02;;;;;;;26.75;14.45;;;0.50;99.90;;;;;;4937183;28;20048;-89
2022/12/10 08:26:32;;;;;;;25.45;14.25;;;0.50;99.90;;;;;;4976331;28;20062;-90
2022/12/10 08:29:00;;;;;;;25.17;14.48;;;0.40;99.90;;;;;;4974137;28;20050;-90
2022/12/10 08:31:29;;;;;;;24.38;15.40;;;0.40;99.90;;;;;;4958723;28;20054;-91
2022/12/10 08:34:10;;;;;;;30.70;16.83;;;0.30;99.90;;;;;;4959178;28;20070;-91
2022/12/10 08:36:37;;;;;;;24.10;14.38;;;0.40;99.90;;;;;;4941155;28;20035;-90
2022/12/10 08:39:05;;;;;;;23.67;13.35;;;0.40;99.90;;;;;;4976187;28;20277;-89
2022/12/10 08:41:32;;;;;;;28.63;14.75;;;0.40;99.90;;;;;;4957753;28;20051;-88
2022/12/10 08:44:13;;;;;;;21.52;12.75;;;0.40;99.90;;;;;;4941428;28;20061;-91
2022/12/10 08:46:40;;;;;;;24.88;12.85;;;0.50;99.90;;;;;;4971074;28;20138;-88
2022/12/10 08:49:08;;;;;;;22.70;13.70;;;0.50;99.90;;;;;;4957972;28;20058;-88
2022/12/10 08:51:43;;;;;;;23.10;14.05;;;0.40;99.90;;;;;;4957953;28;20051;-89
2022/12/10 08:54:10;;;;;;;28.45;16.55;;;0.40;99.90;;;;;;4954631;28;20055;-89
2022/12/10 08:56:39;;;;;;;20.92;11.95;;;0.40;99.90;;;;;;4938737;29;20039;-88
2022/12/10 08:59:07;;;;;;;21.33;12.05;;;0.50;99.90;;;;;;4955437;29;20043;-90
2022/12/10 09:01:34;;;;;;;15.98;11.30;;;0.60;99.90;;;;;;4954570;28;20047;-89
2022/12/10 09:04:02;;;;;;;20.75;14.75;;;0.60;99.90;;;;;;4939403;29;20047;-89
2022/12/10 09:06:30;;;;;;;20.75;13.95;;;0.60;99.90;;;;;;4939050;29;20055;-89
2022/12/10 09:08:58;;;;;;;15.65;11.20;;;0.60;99.90;;;;;;4954457;28;20051;-88
2022/12/10 09:11:32;;;;;;;21.02;15.57;;;0.60;99.90;;;;;;4943633;28;20061;-88
2022/12/10 09:14:00;;;;;;;18.65;12.95;;;0.50;99.90;;;;;;4954569;28;20051;-89
2022/12/10 09:16:36;;;;;;;24.08;14.63;;;0.60;99.90;;;;;;4953391;28;20057;-89
2022/12/10 09:19:04;;;;;;;23.83;14.10;;;0.50;99.90;;;;;;4967246;28;20065;-89
2022/12/10 09:21:32;;;;;;;24.40;14.98;;;0.50;99.90;;;;;;4935395;28;20058;-89
2022/12/10 09:23:59;;;;;;;22.90;11.95;;;0.50;99.90;;;;;;4937952;28;20043;-87
2022/12/10 09:26:28;;;;;;;22.88;13.38;;;0.60;99.90;;;;;;4947690;29;20063;-90
2022/12/10 09:28:57;;;;;;;21.10;12.32;;;0.60;99.90;;;;;;4933993;29;20055;-89
2022/12/10 09:31:26;;;;;;;16.92;11.77;;;0.50;99.90;;;;;;4952574;29;20462;-88
2022/12/10 09:33:54;;;;;;;18.92;15.38;;;0.60;99.90;;;;;;4954042;28;20059;-88
2022/12/10 09:36:22;;;;;;;23.25;13.43;;;0.60;99.90;;;;;;4954923;28;20268;-90
2022/12/10 09:38:55;;;;;;;23.00;11.38;;;0.60;99.90;;;;;;4954716;28;20048;-90
2022/12/10 09:41:34;;;;;;;33.63;15.63;;;0.60;99.90;;;;;;4953722;28;20054;-89
2022/12/10 09:44:20;;;;;;;18.67;12.38;;;0.60;99.90;;;;;;4969612;28;20039;-89
2022/12/10 09:46:55;;;;;;;20.13;11.38;;;0.60;99.90;;;;;;4970939;28;20058;-90
2022/12/10 09:49:56;;;;;;;25.42;15.85;;;0.70;99.90;;;;;;4971334;28;20057;-89
2022/12/10 09:52:26;;;;;;;18.20;12.45;;;0.70;99.90;;;;;;4954257;28;20047;-89
2022/12/10 09:55:04;;;;;;;26.65;12.65;;;0.70;99.90;;;;;;4936214;29;20077;-90
2022/12/10 09:57:37;;;;;;;19.17;13.27;;;0.70;99.90;;;;;;4935821;29;20048;-90
2022/12/10 10:00:18;;;;;;;21.23;13.40;;;0.80;99.90;;;;;;4950664;28;20047;-90
2022/12/10 10:02:46;;;;;;;26.75;15.13;;;0.70;99.90;;;;;;4920346;29;20055;-89
2022/12/10 10:05:21;;;;;;;22.88;13.32;;;0.70;99.90;;;;;;4919859;29;20082;-90
2022/12/10 10:07:53;;;;;;;20.45;11.85;;;0.70;99.90;;;;;;4951595;28;20043;-90
2022/12/10 10:10:36;;;;;;;25.73;14.30;;;0.80;99.90;;;;;;4952705;29;20446;-90
2022/12/10 10:13:07;;;;;;;26.15;13.88;;;0.80;99.90;;;;;;4935636;29;20046;-91
2022/12/10 10:15:37;;;;;;;25.33;15.13;;;0.80;99.90;;;;;;4920460;28;20293;-92
2022/12/10 10:18:11;;;;;;;20.45;14.38;;;0.80;99.90;;;;;;4951338;29;20132;-92
2022/12/10 10:20:39;;;;;;;26.17;15.65;;;0.70;99.90;;;;;;4954423;28;20049;-94
2022/12/10 10:23:07;;;;;;;19.42;14.02;;;0.70;99.90;;;;;;4981385;28;20352;-91
2022/12/10 10:25:35;;;;;;;23.00;13.70;;;0.70;99.90;;;;;;4949325;28;20051;-91
2022/12/10 10:28:03;;;;;;;27.88;13.52;;;0.80;99.90;;;;;;4941103;28;20050;-92
2022/12/10 10:30:30;;;;;;;26.98;15.13;;;0.90;99.90;;;;;;4950460;29;20070;-92
2022/12/10 10:33:09;;;;;;;24.98;15.27;;;0.90;99.90;;;;;;4952647;28;20047;-92
2022/12/10 10:35:47;;;;;;;23.23;12.93;;;0.90;99.90;;;;;;4956875;28;20383;-88
2022/12/10 10:38:23;;;;;;;22.50;12.50;;;0.80;99.90;;;;;;4969896;28;20093;-88
2022/12/10 10:40:57;;;;;;;23.70;15.32;;;0.60;99.90;;;;;;4948949;28;20063;-88
2022/12/10 10:43:31;;;;;;;19.98;13.68;;;0.50;99.90;;;;;;4949346;28;20392;-88
2022/12/10 10:46:02;;;;;;;21.30;12.23;;;0.30;99.90;;;;;;4940457;28;20295;-87
2022/12/10 10:48:29;;;;;;;22.25;14.60;;;0.30;99.90;;;;;;4934041;29;20055;-87
2022/12/10 10:51:06;;;;;;;27.45;13.43;;;0.40;99.90;;;;;;4941481;28;20500;-88
2022/12/10 10:53:43;;;;;;;24.58;14.30;;;0.40;99.90;;;;;;4948075;28;20054;-88
2022/12/10 10:56:42;;;;;;;23.02;14.82;;;0.60;99.90;;;;;;4936200;28;20222;-87
2022/12/10 10:59:35;;;;;;;25.08;13.63;;;0.60;99.90;;;;;;4941605;28;20058;-87
2022/12/10 11:02:29;;;;;;;24.95;13.85;;;0.50;99.90;;;;;;4898461;28;20047;-87
2022/12/10 11:05:03;;;;;;;20.27;13.23;;;0.60;99.90;;;;;;4951705;28;20058;-87
2022/12/10 11:07:39;;;;;;;27.98;13.68;;;0.70;99.90;;;;;;4932856;28;20062;-87
2022/12/10 11:10:20;;;;;;;22.25;16.50;;;0.70;99.90;;;;;;4914544;28;20051;-88
2022/12/10 11:13:03;;;;;;;27.13;16.00;;;0.60;99.90;;;;;;4969416;28;20422;-86
2022/12/10 11:15:34;;;;;;;37.95;15.82;;;0.50;99.90;;;;;;4961890;28;20070;-92
2022/12/10 11:18:22;;;;;;;27.35;15.43;;;0.40;99.90;;;;;;4952022;29;20051;-92
2022/12/10 11:21:00;;;;;;;25.88;15.32;;;0.50;99.90;;;;;;4953516;28;20415;-93
2022/12/10 11:23:38;;;;;;;25.75;15.75;;;0.40;99.90;;;;;;4951995;28;20504;-94
2022/12/10 11:26:11;;;;;;;27.60;16.85;;;0.40;99.90;;;;;;4945648;29;20061;-93
2022/12/10 11:28:42;;;;;;;29.17;15.40;;;0.30;99.90;;;;;;4956405;28;20051;-93
2022/12/10 11:31:21;;;;;;;24.33;14.13;;;0.50;99.90;;;;;;4964441;28;20419;-94
2022/12/10 11:33:49;;;;;;;21.23;13.02;;;0.40;99.90;;;;;;4957596;28;20053;-93
2022/12/10 11:36:42;;;;;;;27.42;15.13;;;0.40;99.90;;;;;;4922733;29;20059;-93
2022/12/10 11:43:21;;;;;;;20.83;11.23;;;0.40;99.90;;;;;;4971770;28;20047;-93
2022/12/10 11:46:10;;;;;;;22.63;11.88;;;0.40;99.90;;;;;;4958494;29;20039;-94
2022/12/10 11:49:34;;;;;;;25.02;14.68;;;0.30;99.90;;;;;;4951998;29;20414;-93
2022/12/10 11:52:17;;;;;;;22.60;15.32;;;0.30;99.90;;;;;;4911635;29;20051;-92
2022/12/10 11:55:12;;;;;;;25.98;13.32;;;0.30;99.90;;;;;;4892541;29;20065;-93
2022/12/10 11:58:01;;;;;;;26.92;14.88;;;0.50;99.90;;;;;;4935115;29;20059;-92
2022/12/10 12:00:50;;;;;;;21.65;12.13;;;0.40;99.90;;;;;;4926751;29;20047;-92
2022/12/10 12:03:44;;;;;;;19.00;13.07;;;0.40;99.90;;;;;;4929261;29;20447;-93
2022/12/10 12:06:32;;;;;;;29.63;16.48;;;0.40;99.90;;;;;;4926785;29;20120;-92
2022/12/10 12:09:13;;;;;;;22.20;12.82;;;0.40;99.90;;;;;;4917137;28;20051;-92
2022/12/10 12:12:31;;;;;;;23.10;14.37;;;0.40;99.90;;;;;;4921796;29;20060;-90
2022/12/10 12:15:17;;;;;;;17.42;9.70;;;0.40;99.90;;;;;;4918583;29;20296;-90
2022/12/10 12:17:53;;;;;;;21.35;12.05;;;0.40;99.90;;;;;;4929937;29;20043;-91
2022/12/10 12:20:27;;;;;;;28.27;15.02;;;0.30;99.90;;;;;;4917111;29;20055;-92
2022/12/10 12:23:02;;;;;;;22.75;12.50;;;0.40;99.90;;;;;;4922699;29;20419;-91
2022/12/10 12:25:40;;;;;;;20.92;10.43;;;0.40;99.90;;;;;;4922123;29;20046;-90
2022/12/10 12:28:18;;;;;;;20.70;14.35;;;0.30;99.90;;;;;;4928464;29;20063;-91
2022/12/10 12:30:50;;;;;;;18.55;13.25;;;0.30;99.90;;;;;;4937771;28;20055;-91
2022/12/10 12:33:42;;;;;;;30.92;16.33;;;0.40;99.90;;;;;;4915839;29;20337;-92
2022/12/10 12:36:20;;;;;;;25.92;13.73;;;0.40;99.90;;;;;;4917294;29;20052;-92
2022/12/10 12:39:26;;;;;;;23.17;11.85;;;0.50;99.90;;;;;;4921053;29;20067;-92
2022/12/10 12:42:04;;;;;;;23.58;13.27;;;0.50;99.90;;;;;;4855466;29;20052;-89
2022/12/10 12:44:57;;;;;;;19.90;12.95;;;0.60;99.90;;;;;;4934262;28;20043;-91
2022/12/10 12:47:40;;;;;;;19.33;12.02;;;0.70;99.90;;;;;;4902502;28;20056;-92
2022/12/10 12:50:29;;;;;;;21.92;14.18;;;0.70;99.90;;;;;;4925905;29;20047;-91
2022/12/10 12:52:59;;;;;;;19.10;12.10;;;0.70;99.90;;;;;;4935354;29;20416;-93
2022/12/10 12:55:31;;;;;;;18.92;10.68;;;0.70;99.90;;;;;;4946091;28;20052;-92
2022/12/10 12:58:01;;;;;;;18.90;12.15;;;0.50;99.90;;;;;;4953791;29;20059;-91
2022/12/10 13:00:35;;;;;;;19.67;11.67;;;0.50;99.90;;;;;;4935213;28;20044;-91
2022/12/10 13:03:29;;;;;;;22.80;11.98;;;0.50;99.90;;;;;;4947506;29;20291;-92
2022/12/10 13:06:15;;;;;;;21.33;14.77;;;0.30;99.90;;;;;;4948215;28;20429;-91
2022/12/10 13:09:06;;;;;;;21.83;13.73;;;0.30;99.90;;;;;;4948944;28;20040;-92
2022/12/10 13:11:36;;;;;;;23.70;13.45;;;0.30;99.90;;;;;;4934623;29;20051;-90
2022/12/10 13:14:07;;;;;;;17.45;11.75;;;0.30;99.90;;;;;;4917899;29;20044;-92
2022/12/10 13:16:38;;;;;;;29.27;15.02;;;0.30;99.90;;;;;;4921093;29;20125;-92
2022/12/10 13:19:20;;;;;;;27.80;12.93;;;0.30;99.90;;;;;;4952890;28;20257;-92